Time;durP1;ratioP1;P1;durP2;ratioP2;P2;SDS_P1;SDS_P2;PMS_P1;PMS_P2;Temp;Humidity;BMP_temperature;BMP_pressure;BME280_temperature;BME280_humidity;BME280_pressure;Samples;Min_cycle;Max_cycle;Signal;HPM_P1;HPM_P2
2021/08/22 00:03:23;;;;;;;7.05;2.40;;;;;;;16.98;72.86;101615.66;10199417;28;20068;-65
2021/08/22 00:08:20;;;;;;;6.10;2.40;;;;;;;16.94;72.53;101622.19;10194618;28;20528;-67
2021/08/22 00:13:17;;;;;;;6.80;2.35;;;;;;;16.95;72.81;101624.63;10192804;28;20081;-66
2021/08/22 00:18:13;;;;;;;3.72;2.13;;;;;;;16.92;72.45;101628.06;10190334;28;20050;-65
2021/08/22 00:23:09;;;;;;;4.38;2.28;;;;;;;16.91;71.83;101628.41;10190515;28;20416;-67
2021/08/22 00:28:06;;;;;;;5.05;2.15;;;;;;;16.83;72.67;101621.81;10174818;28;20078;-67
2021/08/22 00:33:02;;;;;;;6.72;2.47;;;;;;;16.80;71.56;101622.47;10187783;28;20125;-66
2021/08/22 00:37:59;;;;;;;4.63;2.17;;;;;;;16.90;72.30;101605.50;10186124;28;20121;-67
2021/08/22 00:42:56;;;;;;;4.43;2.10;;;;;;;16.88;72.26;101607.81;10198321;28;20042;-66
2021/08/22 00:47:55;;;;;;;5.90;2.20;;;;;;;16.94;72.43;101605.63;10198066;28;20050;-67
2021/08/22 00:52:53;;;;;;;7.60;2.28;;;;;;;16.93;72.40;101599.28;10180639;28;20046;-65
2021/08/22 00:57:50;;;;;;;5.53;2.33;;;;;;;16.84;71.70;101601.34;10197451;28;20048;-67
2021/08/22 01:03:01;;;;;;;4.80;1.80;;;;;;;16.82;71.55;101600.84;10186384;28;20073;-67
2021/08/22 01:08:27;;;;;;;5.03;1.90;;;;;;;16.81;72.03;101590.97;10166290;28;20046;-66
2021/08/22 01:13:25;;;;;;;4.22;2.05;;;;;;;16.86;71.68;101592.72;10183348;28;20110;-67
2021/08/22 01:18:24;;;;;;;3.67;1.90;;;;;;;16.84;72.15;101584.75;10174907;28;20042;-66
2021/08/22 01:23:23;;;;;;;6.07;2.13;;;;;;;16.85;72.24;101580.03;10181385;28;20460;-66
2021/08/22 01:28:19;;;;;;;4.47;2.20;;;;;;;16.85;72.20;101569.00;10185385;28;20049;-66
2021/08/22 01:33:17;;;;;;;4.40;2.10;;;;;;;16.86;72.05;101565.09;10196745;28;20096;-66
2021/08/22 01:38:16;;;;;;;4.20;1.80;;;;;;;16.88;71.47;101555.31;10183560;28;20129;-66
2021/08/22 01:43:13;;;;;;;3.75;2.00;;;;;;;16.81;71.15;101541.25;10196601;28;20070;-65
2021/08/22 01:48:13;;;;;;;4.97;1.65;;;;;;;16.81;71.18;101538.50;10180823;28;20049;-65
2021/08/22 01:53:10;;;;;;;5.22;2.05;;;;;;;16.78;71.45;101544.69;10196206;28;20101;-66
2021/08/22 01:58:07;;;;;;;4.78;1.73;;;;;;;16.72;70.90;101544.06;10173486;28;20076;-66
2021/08/22 02:03:15;;;;;;;5.68;1.80;;;;;;;16.70;70.20;101540.03;10195590;28;20049;-66
2021/08/22 02:08:17;;;;;;;3.38;1.80;;;;;;;16.73;71.00;101533.81;10177781;28;20073;-66
2021/08/22 02:13:15;;;;;;;4.85;1.63;;;;;;;16.70;70.68;101529.00;10187186;28;20084;-65
2021/08/22 02:18:16;;;;;;;3.22;1.75;;;;;;;16.73;70.23;101539.34;10195652;28;20046;-65
2021/08/22 02:23:13;;;;;;;3.30;1.60;;;;;;;16.72;70.43;101526.69;10194415;28;20050;-65
2021/08/22 02:28:10;;;;;;;4.68;1.48;;;;;;;16.73;69.68;101522.78;10177925;28;20064;-67
2021/08/22 02:33:08;;;;;;;4.13;1.52;;;;;;;16.72;69.70;101510.94;10170810;28;20471;-66
2021/08/22 02:38:04;;;;;;;4.10;1.70;;;;;;;16.65;69.60;101502.41;10178421;28;20206;-67
2021/08/22 02:43:02;;;;;;;4.57;1.67;;;;;;;16.57;69.63;101504.09;10156987;28;20050;-65
2021/08/22 02:48:00;;;;;;;4.45;1.42;;;;;;;16.49;68.93;101496.69;10153812;28;20074;-66
2021/08/22 02:52:56;;;;;;;3.15;1.50;;;;;;;16.48;68.85;101483.25;10171544;28;20057;-66
2021/08/22 02:57:53;;;;;;;6.28;1.30;;;;;;;16.36;69.07;101493.09;10191960;28;22157;-65
2021/08/22 03:02:49;;;;;;;5.78;1.65;;;;;;;16.46;68.39;101486.34;10162761;28;20400;-65
2021/08/22 03:07:47;;;;;;;4.00;1.42;;;;;;;16.43;68.04;101498.06;10190583;28;20068;-66
2021/08/22 03:12:43;;;;;;;4.90;1.13;;;;;;;16.43;68.40;101492.56;10203007;28;20104;-66
2021/08/22 03:17:40;;;;;;;3.50;1.45;;;;;;;16.44;68.41;101483.13;10172608;28;20080;-66
2021/08/22 03:22:39;;;;;;;3.63;1.38;;;;;;;16.49;67.84;101477.38;10202041;28;20070;-65
2021/08/22 03:27:36;;;;;;;4.65;1.67;;;;;;;16.41;67.13;101472.75;10201350;28;20077;-66
2021/08/22 03:32:32;;;;;;;3.88;1.27;;;;;;;16.48;68.10;101484.06;10183969;28;20074;-66
2021/08/22 03:37:29;;;;;;;4.38;1.58;;;;;;;16.48;67.93;101486.00;10201472;28;20464;-65
2021/08/22 03:42:25;;;;;;;4.78;1.50;;;;;;;16.48;68.31;101484.06;10175555;28;20512;-66
2021/08/22 03:47:22;;;;;;;6.20;1.42;;;;;;;16.37;67.58;101477.34;10198475;28;20522;-67
2021/08/22 03:52:18;;;;;;;3.67;1.42;;;;;;;16.46;67.54;101475.31;10166527;28;20477;-66
2021/08/22 03:57:14;;;;;;;5.38;1.40;;;;;;;16.42;68.41;101463.31;10171204;28;20500;-66
2021/08/22 04:02:11;;;;;;;4.03;1.33;;;;;;;16.37;67.87;101466.31;10195388;28;20415;-67
2021/08/22 04:07:08;;;;;;;5.03;1.50;;;;;;;16.39;68.01;101464.00;10171008;28;20393;-66
2021/08/22 04:12:05;;;;;;;4.65;1.42;;;;;;;16.37;67.95;101466.31;10191700;28;20492;-64
2021/08/22 04:17:02;;;;;;;5.05;1.58;;;;;;;16.31;67.57;101467.66;10190428;28;20147;-64
2021/08/22 04:21:59;;;;;;;4.57;1.25;;;;;;;16.36;67.97;101456.38;10200213;28;20053;-67
2021/08/22 04:26:56;;;;;;;3.00;1.25;;;;;;;16.38;66.94;101446.66;10192958;28;20053;-66
2021/08/22 04:31:52;;;;;;;3.42;1.25;;;;;;;16.35;67.44;101452.03;10197296;28;20085;-65
2021/08/22 04:36:49;;;;;;;4.28;1.20;;;;;;;16.34;67.62;101448.47;10189915;28;20050;-66
2021/08/22 04:41:46;;;;;;;5.22;1.33;;;;;;;16.37;67.44;101449.75;10181126;28;20428;-66
2021/08/22 04:46:43;;;;;;;2.47;1.17;;;;;;;16.40;66.79;101449.84;10188480;28;20593;-67
2021/08/22 04:51:39;;;;;;;6.45;1.83;;;;;;;16.48;67.38;101450.94;10159639;28;20419;-66
2021/08/22 04:56:39;;;;;;;4.75;1.30;;;;;;;16.48;67.21;101456.44;10187390;28;20536;-66
2021/08/22 05:01:36;;;;;;;3.65;1.27;;;;;;;16.51;67.01;101457.72;10188065;28;20054;-65
2021/08/22 05:06:33;;;;;;;6.82;1.38;;;;;;;16.47;66.61;101449.31;10197722;28;20129;-65
2021/08/22 05:11:29;;;;;;;4.57;1.10;;;;;;;16.46;66.89;101446.91;10179271;28;20107;-67
2021/08/22 05:16:25;;;;;;;2.58;1.40;;;;;;;16.52;67.50;101457.38;10183064;28;20133;-66
2021/08/22 05:21:22;;;;;;;2.92;1.13;;;;;;;16.53;67.12;101464.50;10175449;28;20060;-67
2021/08/22 05:26:18;;;;;;;3.70;1.30;;;;;;;16.53;66.78;101461.75;10192700;28;20065;-66
2021/08/22 05:31:15;;;;;;;3.28;1.10;;;;;;;16.58;67.40;101461.53;10197838;28;20132;-66
2021/08/22 05:36:22;;;;;;;6.85;1.40;;;;;;;16.55;67.29;101459.47;10185899;28;20069;-66
2021/08/22 05:41:18;;;;;;;7.32;1.40;;;;;;;16.54;67.11;101470.84;10195459;28;20089;-67
2021/08/22 05:46:15;;;;;;;6.55;1.23;;;;;;;16.49;67.31;101466.34;10196601;28;20108;-65
2021/08/22 05:51:15;;;;;;;3.60;1.30;;;;;;;16.54;67.38;101474.41;10194817;28;20133;-66
2021/08/22 05:56:12;;;;;;;6.80;1.63;;;;;;;16.46;67.01;101469.78;10196111;28;20096;-67
2021/08/22 06:01:09;;;;;;;4.65;1.38;;;;;;;16.51;66.81;101477.84;10183530;28;20045;-65
2021/08/22 06:06:09;;;;;;;4.32;1.40;;;;;;;16.50;67.23;101480.94;10193818;28;20045;-65
2021/08/22 06:11:05;;;;;;;5.93;1.35;;;;;;;16.50;66.84;101481.78;10163901;28;20046;-66
2021/08/22 06:16:02;;;;;;;3.00;1.15;;;;;;;16.44;67.18;101474.84;10191986;28;20515;-65
2021/08/22 06:20:59;;;;;;;4.07;1.33;;;;;;;16.46;67.51;101464.25;10196127;28;20046;-65
2021/08/22 06:25:55;;;;;;;3.70;1.65;;;;;;;16.43;67.11;101459.44;10179693;28;20127;-64
2021/08/22 06:30:52;;;;;;;3.13;1.20;;;;;;;16.46;67.08;101458.75;10196220;28;20463;-65
2021/08/22 06:35:48;;;;;;;4.53;2.40;;;;;;;16.48;67.44;101456.44;10176732;28;20050;-66
2021/08/22 06:40:45;;;;;;;3.50;1.23;;;;;;;16.56;67.71;101458.31;10194938;28;20133;-66
2021/08/22 06:45:41;;;;;;;4.00;1.50;;;;;;;16.63;67.61;101461.31;10192373;28;20077;-65
2021/08/22 06:50:41;;;;;;;5.68;1.58;;;;;;;16.65;67.55;101466.50;10194893;28;20052;-66
2021/08/22 06:55:38;;;;;;;4.03;1.20;;;;;;;16.70;68.32;101463.53;10176110;28;20392;-66
2021/08/22 07:00:34;;;;;;;6.53;3.53;;;;;;;16.75;66.81;101462.50;10191346;28;20097;-65
2021/08/22 07:05:31;;;;;;;4.78;1.40;;;;;;;16.82;67.67;101460.00;10191181;28;20058;-66
2021/08/22 07:10:28;;;;;;;3.15;1.20;;;;;;;16.78;67.31;101483.94;10175669;28;20053;-65
2021/08/22 07:15:25;;;;;;;5.53;1.55;;;;;;;16.84;65.87;101512.94;10188965;28;20819;-65
2021/08/22 07:20:21;;;;;;;6.10;1.42;;;;;;;16.86;65.80;101499.63;10146286;28;20116;-66
2021/08/22 07:25:20;;;;;;;3.33;1.38;;;;;;;16.97;65.89;101522.09;10186388;28;20050;-66
2021/08/22 07:30:17;;;;;;;3.33;1.55;;;;;;;17.02;66.01;101510.81;10193077;28;20053;-66
2021/08/22 07:35:13;;;;;;;3.65;1.40;;;;;;;17.09;65.01;101521.31;10185852;28;20535;-66
2021/08/22 07:40:10;;;;;;;4.00;1.27;;;;;;;17.18;65.28;101499.91;10183442;28;20104;-66
2021/08/22 07:45:07;;;;;;;4.35;1.60;;;;;;;17.12;66.48;101482.72;10192708;28;20092;-66
2021/08/22 07:50:04;;;;;;;3.20;1.35;;;;;;;17.08;65.21;101500.34;10196200;28;20693;-66
2021/08/22 07:55:00;;;;;;;4.00;1.85;;;;;;;17.22;66.14;101489.78;10198028;28;20078;-66
2021/08/22 07:59:56;;;;;;;3.67;1.25;;;;;;;17.23;65.24;101496.91;10200717;28;20049;-66
2021/08/22 08:04:53;;;;;;;4.68;1.55;;;;;;;17.35;65.94;101496.91;10199664;28;20446;-66
2021/08/22 08:09:50;;;;;;;4.07;2.08;;;;;;;17.45;65.44;101504.75;10186976;28;20121;-66
2021/08/22 08:14:46;;;;;;;11.70;1.65;;;;;;;17.42;65.61;101494.38;10180993;28;20041;-65
2021/08/22 08:19:43;;;;;;;5.90;1.58;;;;;;;17.59;65.65;101506.34;10190521;28;20038;-66
2021/08/22 08:24:39;;;;;;;4.65;1.50;;;;;;;17.66;64.76;101498.28;10201923;28;20717;-65
2021/08/22 08:29:36;;;;;;;4.50;1.23;;;;;;;17.69;64.86;101503.13;10187286;28;20153;-66
2021/08/22 08:34:32;;;;;;;2.70;1.38;;;;;;;17.67;64.53;101505.44;10190403;28;20070;-66
2021/08/22 08:39:29;;;;;;;5.90;1.50;;;;;;;17.62;65.05;101500.94;10174985;28;20046;-66
2021/08/22 08:44:25;;;;;;;3.95;1.67;;;;;;;17.61;64.87;101502.09;10191310;28;20073;-66
2021/08/22 08:49:49;;;;;;;4.60;1.38;;;;;;;17.71;63.46;101506.34;10198941;28;20147;-66
2021/08/22 08:54:53;;;;;;;;;;;;;;;17.78;63.69;101506.59;10155222;28;20080;-66
2021/08/22 08:59:49;;;;;;;3.97;1.87;;;;;;;17.80;63.30;101501.50;10189320;28;19922;-66
2021/08/22 09:04:57;;;;;;;3.53;1.42;;;;;;;17.80;63.96;101509.81;10171931;28;20050;-66
2021/08/22 09:10:28;;;;;;;4.43;1.65;;;;;;;17.88;64.13;101516.38;10183663;28;20073;-66
2021/08/22 09:16:00;;;;;;;4.75;1.63;;;;;;;17.94;64.63;101519.72;10177205;28;20065;-66
2021/08/22 09:21:09;;;;;;;3.15;1.38;;;;;;;17.93;64.71;101512.56;10184319;28;20049;-66
2021/08/22 09:26:33;;;;;;;6.10;1.38;;;;;;;17.99;64.98;101519.50;10196089;28;20073;-67
2021/08/22 09:31:48;;;;;;;;;;;;;;;17.92;64.46;101516.50;10183255;28;20046;-66
2021/08/22 09:37:03;;;;;;;;;;;;;;;17.94;64.99;101522.47;10184495;28;19925;-66
2021/08/22 09:42:36;;;;;;;9.75;1.92;;;;;;;17.84;63.97;101521.78;10184690;28;20342;-66
2021/08/22 09:48:10;;;;;;;5.60;1.90;;;;;;;17.75;65.51;101529.38;10176696;28;20124;-66
2021/08/22 09:53:26;;;;;;;5.05;1.60;;;;;;;17.80;65.75;101534.69;10190184;28;20080;-66
2021/08/22 09:58:50;;;;;;;6.25;1.83;;;;;;;17.73;65.99;101531.72;10196377;28;20100;-66
2021/08/22 10:03:56;;;;;;;;;;;;;;;17.66;66.81;101537.81;10179681;28;20049;-66
2021/08/22 10:09:03;;;;;;;4.70;1.42;;;;;;;17.61;66.99;101545.53;10196108;28;19976;-66
2021/08/22 10:14:00;;;;;;;6.03;1.58;;;;;;;17.57;69.27;101541.88;10163173;28;20054;-66
2021/08/22 10:19:08;;;;;;;5.35;2.28;;;;;;;17.41;70.49;101548.06;10195823;28;20088;-66
2021/08/22 10:24:07;;;;;;;3.35;1.60;;;;;;;17.25;72.74;101549.88;10194701;28;20460;-66
2021/08/22 10:29:06;;;;;;;4.28;1.98;;;;;;;17.19;72.93;101551.25;10179156;28;20046;-66
2021/08/22 10:34:21;;;;;;;3.63;2.10;;;;;;;17.18;73.16;101555.97;10192271;28;20503;-66
2021/08/22 10:39:27;;;;;;;5.43;1.90;;;;;;;17.11;73.73;101549.41;10172322;28;20073;-66
2021/08/22 10:44:32;;;;;;;5.32;2.30;;;;;;;17.09;74.94;101551.69;10190543;28;20452;-66
2021/08/22 10:49:54;;;;;;;3.50;1.52;;;;;;;17.15;74.63;101555.84;10193928;28;20053;-66
2021/08/22 10:55:05;;;;;;;6.50;2.28;;;;;;;17.11;76.24;101555.72;10157920;28;20074;-66
2021/08/22 11:00:22;;;;;;;5.40;2.47;;;;;;;17.11;76.87;101560.47;10156299;28;20062;-66
2021/08/22 11:05:20;;;;;;;5.85;2.42;;;;;;;16.99;77.91;101559.28;10183191;28;20100;-66
2021/08/22 11:10:18;;;;;;;8.73;2.50;;;;;;;16.99;78.11;101570.31;10194425;28;20077;-66
2021/08/22 11:15:28;;;;;;;4.53;2.70;;;;;;;16.98;78.79;101571.44;10171935;28;20054;-66
2021/08/22 11:20:29;;;;;;;5.55;3.03;;;;;;;16.96;79.21;101565.47;10189809;28;20062;-66
2021/08/22 11:25:26;;;;;;;5.57;3.17;;;;;;;16.92;80.03;101575.59;10195979;28;20453;-66
2021/08/22 11:30:27;;;;;;;4.68;2.60;;;;;;;16.89;80.35;101570.72;10194792;28;20081;-66
2021/08/22 11:35:24;;;;;;;5.43;2.95;;;;;;;16.92;80.83;101574.75;10180684;28;20045;-66
2021/08/22 11:40:23;;;;;;;8.93;3.50;;;;;;;16.87;81.27;101567.50;10179963;28;20130;-66
2021/08/22 11:45:22;;;;;;;6.68;3.30;;;;;;;16.85;82.23;101575.34;10199838;28;20527;-66
2021/08/22 11:50:23;;;;;;;6.63;3.15;;;;;;;16.82;83.21;101581.53;10175646;28;20431;-66
2021/08/22 11:55:22;;;;;;;4.85;3.10;;;;;;;16.87;82.97;101584.06;10196612;28;20056;-67
2021/08/22 12:00:20;;;;;;;7.45;3.22;;;;;;;16.90;83.04;101577.88;10197130;28;20057;-66
2021/08/22 12:05:21;;;;;;;8.70;4.43;;;;;;;16.91;83.81;101579.50;10196426;28;20089;-66
2021/08/22 12:10:24;;;;;;;7.22;3.17;;;;;;;16.95;83.65;101591.47;10195698;28;20570;-66
2021/08/22 12:15:34;;;;;;;8.60;4.53;;;;;;;16.95;83.24;101579.63;10185750;28;21077;-66
2021/08/22 12:20:31;;;;;;;4.90;3.28;;;;;;;16.83;82.81;101577.63;10178725;28;20046;-66
2021/08/22 12:25:28;;;;;;;6.60;3.35;;;;;;;16.80;83.42;101581.06;10197547;28;20073;-66
2021/08/22 12:30:30;;;;;;;9.73;4.68;;;;;;;16.74;83.66;101579.63;10199941;28;20137;-66
2021/08/22 12:35:27;;;;;;;7.95;3.50;;;;;;;16.68;84.42;101587.31;10190957;28;20107;-66
2021/08/22 12:40:23;;;;;;;6.10;3.63;;;;;;;16.70;83.61;101595.25;10199083;28;20050;-66
2021/08/22 12:45:20;;;;;;;8.05;3.95;;;;;;;16.66;84.07;101586.81;10192594;28;20050;-66
2021/08/22 12:50:16;;;;;;;6.05;3.42;;;;;;;16.65;84.56;101588.00;10190631;28;20100;-66
2021/08/22 12:55:13;;;;;;;5.65;3.53;;;;;;;16.62;84.44;101588.69;10186667;28;20049;-66
2021/08/22 13:00:10;;;;;;;7.85;3.45;;;;;;;16.65;83.75;101587.19;10181966;28;20099;-66
2021/08/22 13:05:06;;;;;;;7.05;3.72;;;;;;;16.69;84.33;101593.66;10183775;28;20424;-66
2021/08/22 13:10:03;;;;;;;7.53;4.03;;;;;;;16.66;85.35;101597.06;10189393;28;20050;-66
2021/08/22 13:15:00;;;;;;;8.93;3.67;;;;;;;16.75;84.17;101597.81;10192038;28;20148;-66
2021/08/22 13:19:56;;;;;;;9.52;4.10;;;;;;;16.58;84.67;101604.28;10180630;28;20050;-65
2021/08/22 13:24:53;;;;;;;8.25;3.83;;;;;;;16.58;84.32;101610.63;10194829;28;20534;-66
2021/08/22 13:29:49;;;;;;;7.43;3.70;;;;;;;16.52;84.16;101611.94;10197363;28;20270;-66
2021/08/22 13:34:45;;;;;;;9.65;4.32;;;;;;;16.51;84.83;101610.34;10188064;28;20080;-66
2021/08/22 13:39:42;;;;;;;8.35;5.03;;;;;;;16.45;85.74;101619.97;10197251;28;20057;-66
2021/08/22 13:44:38;;;;;;;8.65;4.47;;;;;;;16.49;85.48;101618.16;10182858;28;20503;-66
2021/08/22 13:49:35;;;;;;;10.82;4.88;;;;;;;16.48;85.81;101611.03;10195898;28;20073;-66
2021/08/22 13:54:31;;;;;;;8.82;4.70;;;;;;;16.38;86.34;101619.69;10175955;28;20536;-66
2021/08/22 13:59:27;;;;;;;8.30;4.05;;;;;;;16.46;86.21;101615.28;10169667;28;20041;-66
2021/08/22 14:04:26;;;;;;;7.47;4.25;;;;;;;16.43;86.06;101602.97;10190617;28;20058;-66
2021/08/22 14:09:22;;;;;;;7.93;4.43;;;;;;;16.47;85.84;101605.84;10196255;28;20258;-66
2021/08/22 14:14:18;;;;;;;8.93;4.57;;;;;;;16.52;85.95;101600.91;10172503;28;20045;-66
2021/08/22 14:19:15;;;;;;;8.18;5.05;;;;;;;16.53;86.00;101602.53;10195008;28;20479;-66
2021/08/22 14:24:11;;;;;;;9.57;6.05;;;;;;;16.51;86.88;101601.25;10195594;28;20393;-65
2021/08/22 14:29:08;;;;;;;7.47;4.35;;;;;;;16.44;86.62;101604.56;10189590;28;20070;-66
2021/08/22 14:34:08;;;;;;;9.75;4.75;;;;;;;16.40;86.77;101598.09;10194782;28;20042;-66
2021/08/22 14:39:06;;;;;;;8.88;4.53;;;;;;;16.40;87.28;101589.81;10175567;28;20091;-66
2021/08/22 14:44:02;;;;;;;10.93;4.47;;;;;;;16.44;87.34;101599.03;10194716;28;20462;-66
2021/08/22 14:49:00;;;;;;;7.45;4.35;;;;;;;16.47;87.23;101595.59;10168864;28;20074;-66
2021/08/22 14:53:56;;;;;;;7.40;4.97;;;;;;;16.49;87.11;101603.56;10190602;28;20077;-66
2021/08/22 14:58:53;;;;;;;9.05;5.50;;;;;;;16.50;87.23;101602.41;10196352;28;20100;-66
2021/08/22 15:03:50;;;;;;;9.27;4.85;;;;;;;16.51;87.64;101604.03;10199286;28;20547;-65
2021/08/22 15:08:46;;;;;;;8.90;5.35;;;;;;;16.57;87.83;101609.00;10203084;28;20533;-66
2021/08/22 15:13:43;;;;;;;10.13;4.63;;;;;;;16.54;87.31;101604.16;10189831;28;20133;-66
2021/08/22 15:18:39;;;;;;;6.60;4.20;;;;;;;16.49;87.11;101611.84;10202361;28;20066;-66
2021/08/22 15:23:36;;;;;;;6.30;3.92;;;;;;;16.44;87.04;101607.31;10173405;28;20042;-66
2021/08/22 15:28:33;;;;;;;9.13;4.15;;;;;;;16.40;86.63;101614.66;10193395;28;20061;-65
2021/08/22 15:33:30;;;;;;;6.80;4.35;;;;;;;16.29;86.59;101613.41;10195180;28;20499;-66
2021/08/22 15:38:27;;;;;;;8.40;4.63;;;;;;;16.27;86.49;101612.94;10184770;28;20070;-65
2021/08/22 15:43:23;;;;;;;10.75;4.47;;;;;;;16.24;86.91;101610.88;10193001;28;20081;-65
2021/08/22 15:48:20;;;;;;;8.63;4.40;;;;;;;16.25;86.13;101612.50;10172263;28;20070;-65
2021/08/22 15:53:18;;;;;;;8.20;5.10;;;;;;;16.16;86.83;101609.78;10190270;28;20050;-67
2021/08/22 15:58:15;;;;;;;7.63;4.43;;;;;;;16.14;87.47;101606.56;10189427;28;20077;-66
2021/08/22 16:03:12;;;;;;;10.20;5.40;;;;;;;16.17;87.59;101609.44;10172383;28;20081;-66
2021/08/22 16:08:08;;;;;;;9.35;5.47;;;;;;;16.16;88.02;101609.78;10200706;28;20060;-66
2021/08/22 16:13:05;;;;;;;8.38;5.65;;;;;;;16.22;88.59;101602.09;10193189;28;20077;-66
2021/08/22 16:18:01;;;;;;;16.90;5.80;;;;;;;16.29;88.40;101608.72;10200301;28;20084;-66
2021/08/22 16:22:58;;;;;;;15.25;4.72;;;;;;;16.35;88.25;101601.06;10189669;28;20504;-66
2021/08/22 16:27:54;;;;;;;9.13;4.72;;;;;;;16.36;88.65;101608.19;10198990;28;20507;-66
2021/08/22 16:32:52;;;;;;;12.23;5.40;;;;;;;16.33;88.34;101608.84;10180715;28;20153;-66
2021/08/22 16:37:48;;;;;;;10.30;5.20;;;;;;;16.32;88.51;101612.78;10198595;28;20110;-66
2021/08/22 16:42:45;;;;;;;9.68;5.50;;;;;;;16.32;88.65;101612.78;10178459;28;20129;-66
2021/08/22 16:47:41;;;;;;;9.75;5.00;;;;;;;16.33;88.65;101614.38;10184066;28;20042;-66
2021/08/22 16:52:38;;;;;;;8.10;4.85;;;;;;;16.34;88.56;101604.97;10175202;28;20096;-66
2021/08/22 16:57:35;;;;;;;10.18;5.70;;;;;;;16.31;88.71;101600.09;10192500;28;20046;-66
2021/08/22 17:02:33;;;;;;;11.10;5.63;;;;;;;16.33;87.49;101604.13;10199325;28;20076;-66
2021/08/22 17:07:30;;;;;;;6.75;4.28;;;;;;;16.27;85.55;101611.03;10181888;28;20050;-66
2021/08/22 17:12:26;;;;;;;8.23;3.80;;;;;;;16.28;85.33;101606.31;10198849;28;20560;-66
2021/08/22 17:17:23;;;;;;;9.25;4.88;;;;;;;16.27;85.73;101610.19;10193234;28;20057;-66
2021/08/22 17:22:20;;;;;;;8.40;4.72;;;;;;;16.20;86.48;101611.53;10196305;28;20045;-66
2021/08/22 17:27:17;;;;;;;11.90;5.57;;;;;;;16.20;85.04;101617.06;10192086;28;20496;-66
2021/08/22 17:32:17;;;;;;;9.10;4.22;;;;;;;16.20;83.43;101614.31;10195192;28;20389;-66
2021/08/22 17:37:16;;;;;;;15.40;5.40;;;;;;;16.29;85.54;101616.19;10195226;28;20156;-66
2021/08/22 17:42:16;;;;;;;14.80;4.78;;;;;;;16.28;85.52;101623.66;10193781;28;20540;-66
2021/08/22 17:47:13;;;;;;;10.13;4.40;;;;;;;16.32;86.46;101630.13;10196283;28;20041;-66
2021/08/22 17:52:10;;;;;;;8.40;4.40;;;;;;;16.30;86.72;101634.38;10173999;28;20061;-66
2021/08/22 17:57:06;;;;;;;10.30;4.10;;;;;;;16.22;85.32;101624.19;10195710;28;20519;-66
2021/08/22 18:02:03;;;;;;;7.97;4.72;;;;;;;16.19;85.13;101631.97;10161077;28;20113;-66
2021/08/22 18:07:00;;;;;;;7.35;4.50;;;;;;;16.06;82.68;101643.25;10182154;28;20054;-66
2021/08/22 18:11:56;;;;;;;11.98;5.63;;;;;;;15.98;84.08;101653.19;10175499;28;20046;-66
2021/08/22 18:16:53;;;;;;;14.82;5.50;;;;;;;16.04;84.15;101662.91;10154494;28;20058;-65
2021/08/22 18:21:49;;;;;;;8.13;3.53;;;;;;;16.05;84.71;101670.03;10185560;28;20104;-66
2021/08/22 18:26:46;;;;;;;11.23;5.38;;;;;;;16.03;84.99;101680.59;10169704;28;20045;-65
2021/08/22 18:31:44;;;;;;;10.27;4.72;;;;;;;16.03;84.79;101688.06;10184876;28;20076;-65
2021/08/22 18:36:40;;;;;;;9.73;5.72;;;;;;;16.07;85.68;101689.81;10176182;28;20096;-66
2021/08/22 18:41:38;;;;;;;14.25;6.18;;;;;;;16.06;86.78;101698.44;10174770;28;20100;-66
2021/08/22 18:46:34;;;;;;;12.00;5.97;;;;;;;16.07;87.49;101711.91;10184644;28;20053;-67
2021/08/22 18:51:31;;;;;;;17.55;6.60;;;;;;;16.05;87.85;101719.69;10175666;28;20054;-66
2021/08/22 18:56:29;;;;;;;13.02;6.75;;;;;;;16.04;88.04;101728.31;10160714;28;20607;-66
2021/08/22 19:01:26;;;;;;;12.15;6.82;;;;;;;15.98;88.05;101741.47;10160203;28;20062;-67
2021/08/22 19:06:23;;;;;;;12.95;6.45;;;;;;;15.99;88.38;101745.84;10168870;28;20535;-67
2021/08/22 19:11:20;;;;;;;11.80;5.95;;;;;;;15.93;88.84;101749.91;10154139;28;20052;-67
2021/08/22 19:16:16;;;;;;;11.25;6.43;;;;;;;15.94;88.77;101751.53;10177146;28;20482;-67
2021/08/22 19:21:13;;;;;;;8.13;6.05;;;;;;;15.95;89.11;101758.69;10171316;28;20081;-67
2021/08/22 19:26:10;;;;;;;19.35;6.80;;;;;;;15.89;89.20;101760.78;10176071;28;20089;-66
2021/08/22 19:31:06;;;;;;;11.90;6.40;;;;;;;15.89;89.69;101766.31;10175271;28;20121;-66
2021/08/22 19:36:06;;;;;;;15.10;7.38;;;;;;;15.94;89.47;101770.84;10170055;28;20054;-67
2021/08/22 19:41:03;;;;;;;9.85;5.60;;;;;;;15.89;89.65;101768.25;10166144;28;20050;-68
2021/08/22 19:45:59;;;;;;;11.95;6.03;;;;;;;15.85;89.55;101770.88;10171350;28;20100;-67
2021/08/22 19:50:56;;;;;;;9.32;5.75;;;;;;;15.88;89.79;101775.72;10180477;28;20061;-67
2021/08/22 19:55:52;;;;;;;10.02;5.88;;;;;;;15.88;89.65;101774.94;10180654;28;20139;-67
2021/08/22 20:00:49;;;;;;;9.95;5.50;;;;;;;15.86;89.93;101789.03;10169965;28;20623;-70
2021/08/22 20:05:46;;;;;;;11.80;6.47;;;;;;;15.86;89.85;101789.03;10169600;28;20042;-69
2021/08/22 20:10:43;;;;;;;11.85;5.25;;;;;;;15.88;90.32;101785.97;10171139;28;20520;-69
2021/08/22 20:15:39;;;;;;;8.70;5.50;;;;;;;15.87;90.12;101795.34;10162659;28;20485;-69
2021/08/22 20:20:39;;;;;;;10.32;6.13;;;;;;;15.84;89.98;101804.28;10181085;28;20400;-66
2021/08/22 20:25:36;;;;;;;12.55;6.93;;;;;;;15.84;89.59;101799.56;10172424;28;20525;-67
2021/08/22 20:30:33;;;;;;;12.52;7.45;;;;;;;15.85;90.11;101808.66;10176496;28;20065;-67
2021/08/22 20:35:30;;;;;;;12.70;7.80;;;;;;;15.77;90.44;101808.34;10168771;28;20508;-67
2021/08/22 20:40:26;;;;;;;11.98;8.23;;;;;;;15.80;90.35;101817.91;10182227;28;20153;-67
2021/08/22 20:45:23;;;;;;;11.77;7.78;;;;;;;15.81;90.31;101832.53;10181836;28;20104;-67
2021/08/22 20:50:19;;;;;;;16.00;7.75;;;;;;;15.81;90.29;101835.28;10183026;28;20042;-66
2021/08/22 20:55:16;;;;;;;13.90;7.25;;;;;;;15.80;90.47;101833.66;10185228;28;20175;-68
2021/08/22 21:00:14;;;;;;;10.88;7.60;;;;;;;15.71;90.50;101837.25;10187357;28;20100;-68
2021/08/22 21:05:11;;;;;;;10.73;6.63;;;;;;;15.78;90.61;101843.06;10187619;28;20057;-68
2021/08/22 21:10:08;;;;;;;13.98;7.38;;;;;;;15.78;90.63;101848.59;10188812;28;20820;-68
2021/08/22 21:15:05;;;;;;;12.20;6.95;;;;;;;15.73;90.28;101846.00;10182558;28;20157;-67
2021/08/22 21:20:02;;;;;;;13.15;7.93;;;;;;;15.72;90.19;101849.88;10190916;28;20407;-68
2021/08/22 21:24:59;;;;;;;12.30;7.47;;;;;;;15.68;90.28;101848.88;10168980;28;20188;-68
2021/08/22 21:29:56;;;;;;;15.90;7.55;;;;;;;15.64;90.29;101853.44;10186341;28;20565;-68
2021/08/22 21:34:52;;;;;;;12.05;7.00;;;;;;;15.53;90.59;101849.38;10186463;28;20069;-69
2021/08/22 21:39:49;;;;;;;8.85;6.47;;;;;;;15.53;90.45;101844.66;10182624;28;20081;-68
2021/08/22 21:44:45;;;;;;;14.27;7.00;;;;;;;15.55;90.27;101855.38;10185511;28;20053;-69
2021/08/22 21:49:42;;;;;;;12.23;6.90;;;;;;;15.48;90.49;101855.03;10169655;28;20188;-70
2021/08/22 21:54:39;;;;;;;12.55;7.47;;;;;;;15.50;90.68;101852.75;10186680;28;20551;-69
2021/08/22 21:59:35;;;;;;;14.18;7.57;;;;;;;15.49;90.34;101865.72;10181705;28;20112;-69
2021/08/22 22:04:32;;;;;;;10.98;6.40;;;;;;;15.51;90.54;101870.94;10185882;28;20611;-68
2021/08/22 22:09:28;;;;;;;16.73;6.10;;;;;;;15.53;90.07;101874.97;10180364;28;20075;-69
2021/08/22 22:14:25;;;;;;;8.68;6.05;;;;;;;15.50;90.26;101866.53;10185952;28;20586;-69
2021/08/22 22:19:21;;;;;;;13.52;6.00;;;;;;;15.45;90.69;101877.72;10181766;28;20053;-69
2021/08/22 22:24:18;;;;;;;12.90;6.43;;;;;;;15.44;90.07;101870.59;10177896;28;20054;-69
2021/08/22 22:29:14;;;;;;;8.65;6.07;;;;;;;15.34;89.94;101882.75;10186307;28;20531;-69
2021/08/22 22:34:11;;;;;;;8.93;5.57;;;;;;;15.40;90.03;101883.41;10186127;28;20088;-69
2021/08/22 22:39:07;;;;;;;7.57;5.45;;;;;;;15.33;90.09;101887.44;10186552;28;20086;-69
2021/08/22 22:44:04;;;;;;;10.38;6.30;;;;;;;15.26;90.04;101889.84;10178838;28;20567;-70
2021/08/22 22:49:00;;;;;;;8.48;5.13;;;;;;;15.30;89.43;101890.03;10182592;28;20627;-68
2021/08/22 22:53:57;;;;;;;9.73;5.28;;;;;;;15.29;89.48;101880.97;10185774;28;20088;-67